Data for 03/19/2013

Time Sea-Level Adjusted Pressure Absolute Pressure Temperature Relative Humidity Dew Point   
(mb) (inHg) (mb) (inHg) (C) (F) (%) (C) (F)
00:05 1017 30.03 846 24.98 -4.3 24.3 92 -5.4 22.3
00:10 1017 30.03 846 24.98 -4.3 24.3 92 -5.3 22.4
00:15 1017 30.03 846 24.98 -4.2 24.4 92 -5.3 22.4
00:20 1017 30.03 846 24.98 -4.3 24.3 92 -5.3 22.4
00:25 1017 30.03 846 24.98 -4.3 24.3 92 -5.3 22.4
00:30 1017 30.03 846 24.98 -4.3 24.3 92 -5.4 22.3
00:35 1017 30.03 846 24.98 -4.3 24.3 93 -5.3 22.5
00:40 1017 30.03 846 24.98 -4.2 24.5 92 -5.3 22.4
00:45 1017 30.03 847 25.01 -4.2 24.5 92 -5.3 22.4
00:50 1017 30.03 847 25.01 -4.2 24.4 92 -5.4 22.4
00:55 1017 30.03 847 25.01 -4.2 24.4 92 -5.4 22.3
01:00 1018 30.06 847 25.01 -4.3 24.3 93 -5.3 22.5
01:05 1018 30.06 847 25.01 -4.2 24.5 92 -5.3 22.5
01:10 1018 30.06 847 25.01 -4.1 24.6 92 -5.3 22.5
01:15 1018 30.06 847 25.01 -4.1 24.7 88 -5.8 21.5
01:20 1018 30.06 847 25.01 -4 24.7 90 -5.5 22.1
01:25 1018 30.06 847 25.01 -4.1 24.7 87 -5.9 21.3
01:30 1018 30.06 847 25.01 -4.1 24.7 85 -6.3 20.7
01:35 1018 30.06 847 25.01 -4 24.8 83 -6.4 20.4
01:40 1018 30.06 847 25.01 -4.1 24.7 85 -6.2 20.8
01:45 1018 30.06 847 25.01 -4.2 24.5 87 -6 21.1
01:50 1018 30.06 847 25.01 -4.2 24.4 87 -6.1 21
01:55 1018 30.06 848 25.04 -4.2 24.5 87 -6 21.2
02:00 1018 30.06 847 25.01 -4.2 24.4 88 -6 21.2
02:05 1018 30.06 847 25.01 -4.2 24.4 87 -6.1 21
02:10 1018 30.06 847 25.01 -4.2 24.5 85 -6.3 20.7
02:15 1018 30.06 848 25.04 -4.1 24.5 85 -6.2 20.8
02:20 1018 30.06 848 25.04 -4.2 24.4 85 -6.3 20.6
02:25 1018 30.06 848 25.04 -4.4 24.1 86 -6.4 20.5
02:30 1018 30.06 848 25.04 -4.4 24 85 -6.6 20.2
02:35 1018 30.06 848 25.04 -4.4 24.1 85 -6.6 20.1
02:40 1019 30.09 848 25.04 -4.4 24.1 83 -6.8 19.7
02:45 1019 30.09 848 25.04 -4.4 24.1 82 -7 19.4
02:50 1019 30.09 848 25.04 -4.3 24.2 79 -7.4 18.7
02:55 1019 30.09 848 25.04 -4.2 24.4 76 -7.8 18
03:00 1019 30.09 848 25.04 -4.3 24.2 74 -8.2 17.2
03:05 1019 30.09 848 25.04 -4.3 24.3 73 -8.4 16.8
03:10 1019 30.09 848 25.04 -4.4 24.1 73 -8.5 16.8
03:15 1019 30.09 848 25.04 -4.4 24 71 -8.9 16
03:20 1019 30.09 848 25.04 -4.4 24 70 -9.1 15.6
03:25 1019 30.09 848 25.04 -4.5 23.9 69 -9.3 15.2
03:30 1019 30.09 848 25.04 -4.6 23.7 69 -9.4 15
03:35 1019 30.09 848 25.04 -4.8 23.4 68 -9.9 14.2
03:40 1019 30.09 848 25.04 -4.9 23.1 68 -9.9 14.1
03:45 1019 30.09 848 25.04 -5.1 22.9 68 -10 14
03:50 1019 30.09 848 25.04 -5.3 22.5 67 -10.5 13.1
03:55 1019 30.09 848 25.04 -5.4 22.2 67 -10.5 13
04:00 1019 30.09 848 25.04 -5.6 21.9 66 -11 12.2
04:05 1019 30.09 848 25.04 -5.8 21.6 66 -11.2 11.8
04:10 1019 30.09 848 25.04 -5.8 21.5 65 -11.4 11.5
04:15 1019 30.09 848 25.04 -5.6 21.9 63 -11.7 11
04:20 1019 30.09 848 25.04 -5.6 21.9 63 -11.6 11.2
04:25 1019 30.09 848 25.04 -5.8 21.6 63 -11.8 10.8
04:30 1019 30.09 849 25.07 -5.9 21.3 63 -12 10.5
04:35 1019 30.09 849 25.07 -5.9 21.3 62 -12.1 10.3
04:40 1020 30.12 849 25.07 -6 21.3 61 -12.3 9.9
04:45 1020 30.12 849 25.07 -6.1 21.1 61 -12.3 9.8
04:50 1020 30.12 849 25.07 -6 21.2 61 -12.3 9.9
04:55 1020 30.12 849 25.07 -5.8 21.5 61 -12.2 10.1
05:00 1020 30.12 849 25.07 -5.7 21.7 61 -12.2 10
05:05 1020 30.12 849 25.07 -5.6 21.8 60 -12.3 9.8
05:10 1020 30.12 849 25.07 -5.6 21.8 61 -12 10.3
05:15 1020 30.12 849 25.07 -5.8 21.6 61 -12.1 10.2
05:20 1020 30.12 849 25.07 -5.8 21.6 62 -12 10.4
05:25 1020 30.12 849 25.07 -5.8 21.6 62 -12.1 10.3
05:30 1020 30.12 849 25.07 -5.9 21.4 62 -12 10.4
05:35 1020 30.12 850 25.1 -5.9 21.4 63 -11.9 10.5
05:40 1020 30.12 850 25.1 -5.9 21.4 63 -11.9 10.7
05:45 1020 30.12 850 25.1 -5.9 21.4 63 -11.8 10.8
05:50 1021 30.15 850 25.1 -6 21.2 63 -11.9 10.6
05:55 1021 30.15 850 25.1 -6 21.1 63 -12 10.3
06:00 1021 30.15 850 25.1 -6.3 20.6 64 -12.1 10.3
06:05 1021 30.15 850 25.1 -6.3 20.6 64 -12.1 10.1
06:10 1021 30.15 850 25.1 -6.3 20.6 63 -12.3 9.8
06:15 1021 30.15 850 25.1 -6.4 20.5 63 -12.4 9.7
06:20 1021 30.15 850 25.1 -6.2 20.8 62 -12.3 9.9
06:25 1021 30.15 850 25.1 -5.9 21.3 61 -12.3 9.9
06:30 1021 30.15 850 25.1 -5.6 21.9 61 -11.9 10.5
06:35 1021 30.15 850 25.1 -5.4 22.3 61 -11.8 10.8
06:40 1021 30.15 850 25.1 -5.3 22.6 61 -11.6 11
06:45 1021 30.15 850 25.1 -5.1 22.9 60 -11.6 11
06:50 1021 30.15 850 25.1 -5 23 60 -11.6 11.1
06:55 1021 30.15 850 25.1 -4.9 23.2 58 -11.8 10.7
07:00 1021 30.15 850 25.1 -4.7 23.6 58 -11.8 10.8
07:05 1021 30.15 851 25.13 -4.4 24.1 57 -11.7 11
07:10 1021 30.15 851 25.13 -4.1 24.7 55 -11.8 10.8
07:15 1021 30.15 851 25.13 -3.7 25.3 55 -11.5 11.3
07:20 1021 30.15 851 25.13 -3.7 25.4 56 -11.3 11.7
07:25 1021 30.15 851 25.13 -3.7 25.4 56 -11.3 11.6
07:30 1021 30.15 851 25.13 -4 24.9 56 -11.6 11.2
07:35 1022 30.18 851 25.13 -4 24.8 56 -11.6 11.2
07:40 1022 30.18 851 25.13 -3.7 25.3 55 -11.4 11.4
07:45 1022 30.18 851 25.13 -3.5 25.8 54 -11.4 11.5
07:50 1022 30.18 851 25.13 -3 26.7 52 -11.5 11.2
07:55 1022 30.18 851 25.13 -2.7 27.2 52 -11.3 11.6
08:00 1022 30.18 851 25.13 -2.7 27.2 51 -11.5 11.4
08:05 1022 30.18 851 25.13 -2.8 27.1 53 -11.1 12
08:10 1022 30.18 851 25.13 -3 26.6 53 -11.2 11.8
08:15 1022 30.18 851 25.13 -2.6 27.3 51 -11.5 11.3
08:20 1022 30.18 852 25.16 -1.9 28.6 48 -11.4 11.5
08:25 1022 30.18 852 25.16 -2.4 27.8 51 -11.3 11.7
08:30 1022 30.18 852 25.16 -2.3 27.8 49 -11.7 11
08:35 1023 30.21 852 25.16 -1.8 28.8 50 -10.9 12.3
08:40 1023 30.21 852 25.16 -1.8 28.8 50 -10.9 12.4
08:45 1023 30.21 852 25.16 -1.9 28.5 51 -10.9 12.3
08:50 1023 30.21 852 25.16 -1.6 29.2 48 -11.3 11.7
08:55 1023 30.21 852 25.16 -1.6 29.1 49 -11.1 12
09:00 1023 30.21 852 25.16 -1.4 29.5 46 -11.5 11.3
09:05 1023 30.21 852 25.16 -0.5 31.1 44 -11.3 11.7
09:10 1023 30.21 852 25.16 -0 31.9 43 -11.2 11.8
09:15 1023 30.21 852 25.16 0.2 32.4 43 -10.9 12.3
09:20 1023 30.21 852 25.16 -0.1 31.8 44 -11.1 12.1
09:25 1023 30.21 852 25.16 -0.3 31.4 44 -11.3 11.7
09:30 1023 30.21 852 25.16 -0.5 31.2 44 -11.2 11.8
09:35 1023 30.21 852 25.16 -0.4 31.2 42 -12 10.4
09:40 1023 30.21 852 25.16 -0.4 31.4 41 -12 10.5
09:45 1023 30.21 852 25.16 0 32 39 -12.3 9.9
09:50 1023 30.21 852 25.16 -0.2 31.7 40 -12.1 10.3
09:55 1023 30.21 852 25.16 -0 31.9 41 -11.8 10.7
10:00 1023 30.21 852 25.16 0.4 32.7 40 -11.7 11
10:05 1023 30.21 852 25.16 0.8 33.5 37 -12.2 10
10:10 1023 30.21 852 25.16 0.8 33.4 36 -12.6 9.3
10:15 1023 30.21 852 25.16 0.5 32.9 37 -12.6 9.4
10:20 1023 30.21 852 25.16 0.8 33.4 38 -12.1 10.3
10:25 1023 30.21 852 25.16 0.7 33.3 35 -13.2 8.2
10:30 1023 30.21 852 25.16 0.7 33.3 35 -13.2 8.3
10:35 1023 30.21 852 25.16 0.6 33.1 37 -12.4 9.7
10:40 1023 30.21 852 25.16 0.7 33.2 35 -13.2 8.2
10:45 1023 30.21 852 25.16 0.7 33.2 37 -12.3 9.8
10:50 1023 30.21 852 25.16 0.5 32.8 35 -13.3 8.1
10:55 1023 30.21 853 25.19 0.7 33.3 37 -12.5 9.5
11:00 1023 30.21 853 25.19 0.8 33.5 38 -12.1 10.3
11:05 1023 30.21 853 25.19 1.4 34.6 35 -12.5 9.5
11:10 1023 30.21 853 25.19 1.5 34.7 34 -12.9 8.9
11:15 1023 30.21 853 25.19 1.5 34.7 32 -13.4 8
11:20 1023 30.21 853 25.19 1.5 34.7 37 -11.6 11.2
11:25 1023 30.21 852 25.16 1.6 34.9 34 -12.8 9
11:30 1023 30.21 852 25.16 1.6 34.9 32 -13.6 7.6
11:35 1023 30.21 852 25.16 1.7 35.1 31 -13.6 7.6
11:40 1023 30.21 853 25.19 1.9 35.4 34 -12.4 9.7
11:45 1023 30.21 852 25.16 1.8 35.3 33 -12.8 9
11:50 1023 30.21 852 25.16 1.4 34.5 32 -13.4 7.8
11:55 1023 30.21 852 25.16 1.6 34.9 32 -13.4 8
12:00 1023 30.21 852 25.16 1.9 35.4 32 -13.3 8
12:05 1023 30.21 852 25.16 2.3 36.1 31 -13.4 7.9
12:10 1023 30.21 852 25.16 2.2 36 33 -12.5 9.6
12:15 1023 30.21 852 25.16 2.5 36.6 32 -12.6 9.3
12:20 1023 30.21 852 25.16 2.1 35.8 33 -12.6 9.3
12:25 1023 30.21 852 25.16 2.8 37 31 -12.9 8.7
12:30 1023 30.21 852 25.16 2.7 36.9 30 -13.2 8.2
12:35 1023 30.21 852 25.16 2.5 36.5 29 -13.8 7.2
12:40 1023 30.21 852 25.16 3 37.4 31 -12.6 9.4
12:45 1023 30.21 852 25.16 3.5 38.3 29 -12.9 8.7
12:50 1023 30.21 852 25.16 3.5 38.3 29 -12.9 8.7
12:55 1023 30.21 852 25.16 3.7 38.7 27 -13.5 7.8
13:00 1023 30.21 852 25.16 3.7 38.7 28 -13.3 8.1
13:05 1023 30.21 852 25.16 4.4 39.9 28 -12.6 9.2
13:10 1023 30.21 852 25.16 3 37.4 31 -12.6 9.3
13:15 1023 30.21 852 25.16 2.5 36.4 33 -12.4 9.7
13:20 1023 30.21 852 25.16 2.2 36 32 -13 8.6
13:25 1023 30.21 852 25.16 1.7 35.1 32 -13.3 8.1
13:30 1023 30.21 852 25.16 2.2 36 31 -13.4 7.9
13:35 1023 30.21 852 25.16 3.3 37.9 29 -13 8.6
13:40 1023 30.21 852 25.16 3.4 38 28 -13.7 7.4
13:45 1023 30.21 852 25.16 3.6 38.5 28 -13.5 7.7
13:50 1023 30.21 852 25.16 4.3 39.8 27 -13.1 8.5
13:55 1023 30.21 852 25.16 4.6 40.2 26 -13.6 7.6
14:00 1023 30.21 852 25.16 4.5 40.1 26 -13.2 8.2
14:05 1023 30.21 852 25.16 4.5 40.1 26 -13.4 7.9
14:10 1023 30.21 852 25.16 4.5 40.2 25 -13.9 7
14:15 1022 30.18 852 25.16 4.9 40.8 25 -13.4 7.8
14:20 1022 30.18 852 25.16 5.4 41.7 25 -13.4 7.9
14:25 1022 30.18 852 25.16 5.7 42.2 24 -13.5 7.7
14:30 1022 30.18 852 25.16 5.4 41.7 27 -12.3 9.9
14:35 1022 30.18 852 25.16 5.1 41.2 26 -13.1 8.4
14:40 1022 30.18 852 25.16 5.2 41.4 25 -13.5 7.7
14:45 1022 30.18 852 25.16 4.6 40.4 27 -12.9 8.8
14:50 1022 30.18 852 25.16 4.9 40.8 27 -12.4 9.6
14:55 1022 30.18 852 25.16 4.8 40.7 27 -12.5 9.5
15:00 1022 30.18 852 25.16 4.1 39.4 28 -12.9 8.7
15:05 1022 30.18 852 25.16 3.9 39.1 26 -13.7 7.3
15:10 1022 30.18 852 25.16 4.1 39.3 26 -13.9 7.1
15:15 1022 30.18 851 25.13 4.5 40.2 25 -13.8 7.1
15:20 1022 30.18 851 25.13 4.8 40.6 24 -14 6.7
15:25 1022 30.18 851 25.13 5.2 41.3 23 -14.4 6.1
15:30 1022 30.18 851 25.13 5.4 41.7 23 -14 6.7
15:35 1022 30.18 851 25.13 5.6 42 24 -13.6 7.5
15:40 1022 30.18 851 25.13 5.3 41.6 22 -14.6 5.8
15:45 1022 30.18 851 25.13 5.2 41.4 23 -14.2 6.4
15:50 1022 30.18 851 25.13 5.6 42 22 -14.7 5.5
15:55 1022 30.18 851 25.13 5.5 41.8 23 -14.3 6.3
16:00 1022 30.18 851 25.13 5.3 41.5 21 -15.4 4.2
16:05 1022 30.18 851 25.13 4.8 40.7 22 -15.1 4.9
16:10 1022 30.18 851 25.13 4.8 40.7 22 -15.3 4.5
16:15 1022 30.18 851 25.13 5.2 41.4 21 -15.3 4.4
16:20 1022 30.18 851 25.13 5.7 42.2 20 -15.8 3.6
16:25 1022 30.18 851 25.13 5.1 41.2 23 -14.6 5.7
16:30 1022 30.18 851 25.13 4.9 40.8 22 -15.3 4.5
16:35 1022 30.18 851 25.13 4.5 40.1 22 -15.4 4.2
16:40 1022 30.18 851 25.13 4.7 40.4 21 -16.1 3
16:45 1022 30.18 851 25.13 4.6 40.3 22 -15.4 4.3
16:50 1022 30.18 851 25.13 4.7 40.5 21 -15.8 3.5
16:55 1022 30.18 851 25.13 4.9 40.9 22 -15.2 4.6
17:00 1022 30.18 851 25.13 4.8 40.6 24 -14.4 6.1
17:05 1022 30.18 851 25.13 4.4 39.9 24 -14.3 6.2
17:10 1021 30.15 851 25.13 4.4 39.8 23 -15.1 4.9
17:15 1021 30.15 851 25.13 4.7 40.4 24 -14.3 6.3
17:20 1021 30.15 850 25.1 4.9 40.8 23 -14.6 5.7
17:25 1021 30.15 850 25.1 4.7 40.5 23 -14.9 5.2
17:30 1021 30.15 850 25.1 4.4 39.9 24 -14.5 5.9
17:35 1021 30.15 850 25.1 4.2 39.6 24 -14.4 6
17:40 1021 30.15 850 25.1 4.1 39.4 24 -14.8 5.3
17:45 1021 30.15 850 25.1 4.3 39.8 24 -14.8 5.4
17:50 1021 30.15 850 25.1 4.3 39.7 23 -15.4 4.4
17:55 1021 30.15 850 25.1 4 39.2 23 -15.6 4
18:00 1021 30.15 850 25.1 4 39.2 22 -16 3.2
18:05 1021 30.15 850 25.1 3.9 39.1 23 -15.7 3.8
18:10 1021 30.15 850 25.1 3.9 39.1 22 -15.9 3.5
18:15 1021 30.15 850 25.1 3.8 38.8 23 -15.4 4.3
18:20 1021 30.15 850 25.1 3.7 38.7 24 -15.2 4.6
18:25 1021 30.15 850 25.1 3.5 38.2 24 -15.2 4.6
18:30 1021 30.15 850 25.1 3.3 38 24 -15.6 4
18:35 1021 30.15 850 25.1 3.1 37.7 23 -15.9 3.3
18:40 1021 30.15 850 25.1 3 37.3 23 -16 3.2
18:45 1021 30.15 850 25.1 2.7 36.9 26 -15.1 4.8
18:50 1021 30.15 850 25.1 2.4 36.2 27 -15 5
18:55 1021 30.15 850 25.1 2.1 35.8 28 -14.7 5.6
19:00 1021 30.15 850 25.1 1.8 35.3 29 -14.2 6.4
19:05 1021 30.15 850 25.1 1.6 34.8 31 -14 6.8
19:10 1021 30.15 850 25.1 1.2 34.2 31 -14.2 6.5
19:15 1020 30.12 850 25.1 0.8 33.4 32 -14.2 6.4
19:20 1020 30.12 850 25.1 0.5 32.9 33 -14.1 6.6
19:25 1020 30.12 849 25.07 0.3 32.5 33 -14.1 6.5
19:30 1020 30.12 849 25.07 0.2 32.3 34 -14 6.9
19:35 1020 30.12 849 25.07 -0 31.9 35 -13.8 7.1
19:40 1020 30.12 849 25.07 -0.1 31.8 34 -14.3 6.3
19:45 1020 30.12 849 25.07 -0 31.9 34 -14.2 6.4
19:50 1020 30.12 849 25.07 -0.1 31.8 34 -14.3 6.3
19:55 1020 30.12 849 25.07 0.1 32.1 31 -15.3 4.4
20:00 1020 30.12 849 25.07 0.2 32.3 33 -14.4 6
20:05 1020 30.12 849 25.07 0.1 32.2 32 -14.9 5.2
20:10 1020 30.12 850 25.1 0.3 32.5 32 -14.8 5.4
20:15 1020 30.12 850 25.1 0.1 32.1 33 -14.5 5.8
20:20 1020 30.12 850 25.1 -0.2 31.7 32 -15 5.1
20:25 1020 30.12 850 25.1 -0.1 31.9 32 -15.1 4.9
20:30 1020 30.12 850 25.1 0 32 31 -15.2 4.7
20:35 1020 30.12 850 25.1 0.1 32.1 31 -15 5
20:40 1020 30.12 850 25.1 -0.1 31.8 32 -15 5
20:45 1020 30.12 850 25.1 -0.3 31.4 31 -15.5 4.1
20:50 1020 30.12 849 25.07 -0.1 31.8 31 -15.3 4.4
20:55 1020 30.12 849 25.07 -0.1 31.8 29 -16 3.2
21:00 1020 30.12 849 25.07 -0 32 30 -15.6 3.9
21:05 1020 30.12 849 25.07 -0.2 31.7 31 -15.6 4
21:10 1020 30.12 849 25.07 -0.4 31.4 31 -15.7 3.7
21:15 1020 30.12 849 25.07 -0.4 31.3 31 -15.5 4.2
21:20 1020 30.12 849 25.07 -0.4 31.2 31 -15.5 4.1
21:25 1020 30.12 849 25.07 -0.4 31.3 31 -15.5 4
21:30 1020 30.12 849 25.07 -0.3 31.4 31 -15.5 4.1
21:35 1020 30.12 849 25.07 -0.3 31.5 30 -15.8 3.6
21:40 1020 30.12 849 25.07 -0.2 31.7 30 -15.9 3.5
21:45 1020 30.12 849 25.07 -0 31.9 29 -15.9 3.4
21:50 1020 30.12 849 25.07 0.2 32.3 29 -15.9 3.5
21:55 1020 30.12 849 25.07 -0 32 30 -15.7 3.7
22:00 1019 30.09 849 25.07 -0 31.9 29 -16.1 3
22:05 1019 30.09 849 25.07 0.1 32.1 30 -15.8 3.6
22:10 1019 30.09 849 25.07 -0.1 31.8 29 -16.1 3
22:15 1019 30.09 849 25.07 0.1 32.2 28 -16.4 2.5
22:20 1019 30.09 848 25.04 0.3 32.5 28 -16.3 2.6
22:25 1019 30.09 848 25.04 0.2 32.3 29 -16 3.2
22:30 1019 30.09 848 25.04 -0.2 31.6 30 -15.7 3.7
22:35 1019 30.09 848 25.04 -0.3 31.5 29 -16.3 2.7
22:40 1019 30.09 848 25.04 -0.1 31.8 28 -16.4 2.5
22:45 1019 30.09 848 25.04 -0.1 31.8 29 -16.1 3
22:50 1019 30.09 848 25.04 -0.2 31.7 29 -16.2 2.8
22:55 1019 30.09 848 25.04 -0.1 31.7 30 -15.9 3.4
23:00 1019 30.09 848 25.04 -0.2 31.6 29 -16.3 2.6
23:05 1019 30.09 848 25.04 -0.1 31.8 29 -16.2 2.8
23:10 1019 30.09 848 25.04 0 32.1 28 -16.6 2.2
23:15 1019 30.09 848 25.04 0.1 32.2 28 -16.1 2.9
23:20 1019 30.09 848 25.04 0.1 32.3 28 -16.5 2.2
23:25 1018 30.06 848 25.04 0.5 32.9 26 -16.9 1.6
23:30 1018 30.06 848 25.04 0.6 33.1 27 -16.3 2.7
23:35 1018 30.06 847 25.01 0.4 32.8 27 -16.3 2.6
23:40 1018 30.06 847 25.01 0.4 32.6 28 -16.3 2.7
23:45 1018 30.06 847 25.01 0.4 32.7 28 -16.3 2.6
23:50 1018 30.06 847 25.01 0.3 32.6 28 -16.1 3
23:55 1018 30.06 847 25.01 0.2 32.4 29 -15.8 3.6
24:00 1018 30.06 847 25.01 0 32.1 29 -15.9 3.4